Time;durP1;ratioP1;P1;durP2;ratioP2;P2;SDS_P1;SDS_P2;PMS_P1;PMS_P2;Temp;Humidity;BMP_temperature;BMP_pressure;BME280_temperature;BME280_humidity;BME280_pressure;Samples;Min_cycle;Max_cycle;Signal;HPM_P1;HPM_P2
2023/04/12 00:02:16;;;;;;;2.83;2.57;;;13.00;99.90;;;;;;5016771;28;20227;-73
2023/04/12 00:04:43;;;;;;;2.90;2.43;;;13.00;99.90;;;;;;5016630;28;20257;-74
2023/04/12 00:07:12;;;;;;;2.63;2.43;;;13.00;99.90;;;;;;5020933;28;20229;-73
2023/04/12 00:09:40;;;;;;;2.80;2.60;;;13.00;99.90;;;;;;5015498;28;21465;-73
2023/04/12 00:12:10;;;;;;;2.53;2.33;;;13.00;99.90;;;;;;5002110;28;20958;-72
2023/04/12 00:14:37;;;;;;;4.20;2.43;;;13.10;99.90;;;;;;5018698;28;20212;-74
2023/04/12 00:17:07;;;;;;;4.00;2.47;;;13.10;99.90;;;;;;4999390;28;20341;-72
2023/04/12 00:19:34;;;;;;;2.60;2.40;;;13.00;99.90;;;;;;5015273;28;20201;-74
2023/04/12 00:22:02;;;;;;;2.20;2.10;;;13.00;99.90;;;;;;5016102;28;20642;-73
2023/04/12 00:24:30;;;;;;;2.57;2.37;;;13.00;99.90;;;;;;5015542;28;20215;-72
2023/04/12 00:27:16;;;;;;;2.40;2.30;;;13.00;99.90;;;;;;5017548;28;20203;-73
2023/04/12 00:29:46;;;;;;;2.00;1.90;;;13.00;99.90;;;;;;5018084;28;20221;-73
2023/04/12 00:32:14;;;;;;;2.70;2.50;;;13.00;99.90;;;;;;5018216;28;20192;-72
2023/04/12 00:34:41;;;;;;;2.57;2.37;;;13.00;99.90;;;;;;5018877;28;20264;-72
2023/04/12 00:37:11;;;;;;;2.77;2.47;;;13.00;99.90;;;;;;5018163;28;20209;-73
2023/04/12 00:39:41;;;;;;;2.77;2.53;;;13.00;99.90;;;;;;5019894;28;20187;-72
2023/04/12 00:42:08;;;;;;;2.77;2.53;;;12.90;99.90;;;;;;5017370;28;20277;-74
2023/04/12 00:44:35;;;;;;;3.07;2.80;;;13.00;99.90;;;;;;5011743;28;20270;-74
2023/04/12 00:47:06;;;;;;;4.13;2.40;;;13.00;99.90;;;;;;5018212;28;20644;-73
2023/04/12 00:49:37;;;;;;;2.40;2.20;;;12.90;99.90;;;;;;5015319;28;20278;-72
2023/04/12 00:52:09;;;;;;;3.60;3.27;;;12.90;99.90;;;;;;4999122;28;20650;-73
2023/04/12 00:54:40;;;;;;;3.60;3.30;;;12.90;99.90;;;;;;4996212;28;20218;-73
2023/04/12 00:57:41;;;;;;;2.80;2.60;;;12.90;99.90;;;;;;5017026;28;20201;-73
2023/04/12 01:00:17;;;;;;;3.27;2.93;;;12.90;99.90;;;;;;4995098;28;20514;-73
2023/04/12 01:02:51;;;;;;;2.77;2.50;;;12.90;99.90;;;;;;5009670;28;20326;-71
2023/04/12 01:05:22;;;;;;;2.20;2.00;;;12.90;99.90;;;;;;5029995;28;20218;-73
2023/04/12 01:08:05;;;;;;;2.10;2.00;;;13.00;99.90;;;;;;5016108;28;20203;-73
2023/04/12 01:10:45;;;;;;;1.93;1.83;;;13.00;99.90;;;;;;4999278;28;20684;-72
2023/04/12 01:13:28;;;;;;;2.20;2.00;;;13.00;99.90;;;;;;5018646;28;20198;-73
2023/04/12 01:16:04;;;;;;;1.80;1.70;;;13.00;99.90;;;;;;5011705;28;20647;-73
2023/04/12 01:18:39;;;;;;;1.90;1.80;;;13.00;99.90;;;;;;4998308;28;20219;-72
2023/04/12 01:21:14;;;;;;;1.77;1.67;;;13.10;99.90;;;;;;4997674;28;20203;-72
2023/04/12 01:24:15;;;;;;;1.90;1.80;;;13.10;99.90;;;;;;4997225;28;20288;-73
2023/04/12 01:26:46;;;;;;;1.97;1.87;;;13.00;99.90;;;;;;4996842;28;20672;-72
2023/04/12 01:29:18;;;;;;;1.93;1.83;;;13.00;99.90;;;;;;4996557;28;20261;-72
2023/04/12 01:31:52;;;;;;;1.73;1.63;;;13.00;99.90;;;;;;5014567;28;20589;-73
2023/04/12 01:34:28;;;;;;;1.50;1.40;;;13.00;99.90;;;;;;4997579;28;20207;-73
2023/04/12 01:36:59;;;;;;;1.97;1.77;;;13.00;99.90;;;;;;4996354;28;20234;-73
2023/04/12 01:39:28;;;;;;;1.30;1.20;;;12.90;99.90;;;;;;4997396;28;20565;-73
2023/04/12 01:41:56;;;;;;;1.50;1.20;;;13.00;99.90;;;;;;4999587;28;20203;-73
2023/04/12 01:44:25;;;;;;;1.50;1.40;;;13.00;99.90;;;;;;5013900;28;20199;-73
2023/04/12 01:46:59;;;;;;;1.40;1.17;;;13.00;99.90;;;;;;4998193;28;20237;-71
2023/04/12 01:49:32;;;;;;;1.67;1.57;;;12.90;99.90;;;;;;4996740;28;20231;-72
2023/04/12 01:52:03;;;;;;;1.77;1.67;;;12.90;99.90;;;;;;5000585;28;20279;-72
2023/04/12 01:54:38;;;;;;;1.30;1.20;;;12.90;99.90;;;;;;5014138;28;21098;-72
2023/04/12 01:57:20;;;;;;;1.10;1.10;;;13.00;99.90;;;;;;4998513;28;20196;-73
2023/04/12 01:59:56;;;;;;;1.40;1.30;;;13.00;99.90;;;;;;4994796;28;21125;-73
2023/04/12 02:02:24;;;;;;;1.30;1.20;;;13.00;99.90;;;;;;4994918;28;20320;-71
2023/04/12 02:04:58;;;;;;;1.20;1.20;;;13.00;99.90;;;;;;4996159;28;20230;-72
2023/04/12 02:07:28;;;;;;;1.33;1.23;;;13.00;99.90;;;;;;5016610;28;20714;-72
2023/04/12 02:09:55;;;;;;;1.30;1.20;;;13.00;99.90;;;;;;5010908;28;20254;-72
2023/04/12 02:12:23;;;;;;;1.10;1.10;;;13.00;99.90;;;;;;4997836;28;20782;-72
2023/04/12 02:14:51;;;;;;;1.33;1.23;;;13.00;99.90;;;;;;5014017;28;20199;-70
2023/04/12 02:17:20;;;;;;;1.20;1.10;;;13.00;99.90;;;;;;4996523;28;20204;-71
2023/04/12 02:19:48;;;;;;;1.40;1.30;;;13.00;99.90;;;;;;5016640;28;20197;-73
2023/04/12 02:22:18;;;;;;;1.57;1.47;;;13.00;99.90;;;;;;4997220;28;20334;-72
2023/04/12 02:24:45;;;;;;;1.47;1.37;;;13.00;99.90;;;;;;5017970;28;20282;-72
2023/04/12 02:27:12;;;;;;;1.50;1.40;;;13.00;99.90;;;;;;5014997;28;20199;-72
2023/04/12 02:29:41;;;;;;;1.43;1.33;;;13.00;99.90;;;;;;4999030;28;20284;-71
2023/04/12 02:32:15;;;;;;;1.60;1.40;;;13.00;99.90;;;;;;5011898;28;20257;-72
2023/04/12 02:34:43;;;;;;;1.40;1.30;;;13.00;99.90;;;;;;5027297;28;20505;-72
2023/04/12 02:37:20;;;;;;;1.40;1.30;;;13.00;99.90;;;;;;5014396;28;20199;-73
2023/04/12 02:40:01;;;;;;;1.63;1.53;;;13.00;99.90;;;;;;5012989;28;20203;-73
2023/04/12 02:42:30;;;;;;;3.03;2.30;;;13.00;99.90;;;;;;5012159;28;20211;-73
2023/04/12 02:44:57;;;;;;;1.67;1.53;;;12.90;99.90;;;;;;5013283;28;20214;-73
2023/04/12 02:47:27;;;;;;;2.37;1.60;;;12.90;99.90;;;;;;5014967;28;20195;-72
2023/04/12 02:49:56;;;;;;;1.40;1.30;;;12.80;99.90;;;;;;5000992;28;20243;-71
2023/04/12 02:52:24;;;;;;;1.30;1.20;;;12.80;99.90;;;;;;5015264;28;20428;-71
2023/04/12 02:55:11;;;;;;;1.20;1.20;;;12.80;99.90;;;;;;5018632;28;20206;-71
2023/04/12 02:57:38;;;;;;;1.27;1.20;;;12.80;99.90;;;;;;5000845;28;20204;-71
2023/04/12 03:00:10;;;;;;;1.50;1.40;;;12.80;99.90;;;;;;5002865;28;20204;-72
2023/04/12 03:02:43;;;;;;;1.10;1.10;;;12.80;99.90;;;;;;5034306;28;20230;-71
2023/04/12 03:05:18;;;;;;;1.23;1.20;;;12.80;99.90;;;;;;5000979;28;20690;-71
2023/04/12 03:07:49;;;;;;;1.97;1.87;;;12.80;99.90;;;;;;5022176;28;20279;-72
2023/04/12 03:10:26;;;;;;;1.50;1.40;;;12.80;99.90;;;;;;4999821;28;20218;-71
2023/04/12 03:13:03;;;;;;;1.67;1.57;;;12.80;99.90;;;;;;5002139;28;20218;-72
2023/04/12 03:15:36;;;;;;;1.43;1.30;;;12.90;99.90;;;;;;5019468;28;20306;-73
2023/04/12 03:18:06;;;;;;;2.00;1.80;;;12.90;99.90;;;;;;4999774;28;20213;-71
2023/04/12 03:20:43;;;;;;;1.30;1.20;;;12.80;99.90;;;;;;5002072;28;20215;-73
2023/04/12 03:23:11;;;;;;;1.97;1.87;;;12.80;99.90;;;;;;5002998;28;20663;-73
2023/04/12 03:25:44;;;;;;;1.73;1.60;;;12.80;99.90;;;;;;5003641;28;20533;-72
2023/04/12 03:28:30;;;;;;;1.30;1.30;;;12.80;99.90;;;;;;5021022;28;20207;-73
2023/04/12 03:31:00;;;;;;;1.20;1.20;;;12.80;99.90;;;;;;4999738;28;21031;-73
2023/04/12 03:33:38;;;;;;;1.10;1.00;;;12.90;99.90;;;;;;5000531;28;20308;-72
2023/04/12 03:36:11;;;;;;;1.37;1.27;;;12.90;99.90;;;;;;5003224;28;20203;-71
2023/04/12 03:38:41;;;;;;;1.30;1.30;;;12.70;99.90;;;;;;5000415;28;20747;-72
2023/04/12 03:41:11;;;;;;;1.20;1.10;;;12.80;99.90;;;;;;5003461;28;20210;-73
2023/04/12 03:43:41;;;;;;;1.43;1.33;;;12.80;99.90;;;;;;4998887;28;20286;-73
2023/04/12 03:46:20;;;;;;;1.53;1.43;;;12.80;99.90;;;;;;5014822;28;20234;-71
2023/04/12 03:48:56;;;;;;;1.70;1.60;;;12.80;99.90;;;;;;5002686;28;20273;-72
2023/04/12 03:51:30;;;;;;;1.30;1.30;;;12.70;99.90;;;;;;5003712;28;20231;-71
2023/04/12 03:54:03;;;;;;;1.60;1.50;;;12.70;99.90;;;;;;5019185;28;20285;-72
2023/04/12 03:56:41;;;;;;;2.27;2.07;;;12.60;99.90;;;;;;5000133;28;20286;-72
2023/04/12 03:59:15;;;;;;;2.30;2.10;;;12.60;99.90;;;;;;5003256;28;20953;-73
2023/04/12 04:01:46;;;;;;;2.30;1.90;;;12.60;99.90;;;;;;5034301;28;20200;-72
2023/04/12 04:04:15;;;;;;;2.60;2.40;;;12.60;99.90;;;;;;4999551;28;20245;-72
2023/04/12 04:06:45;;;;;;;2.70;2.50;;;12.60;99.90;;;;;;5020494;28;20241;-73
2023/04/12 04:09:13;;;;;;;3.23;2.90;;;12.60;99.90;;;;;;4998568;28;20309;-72
2023/04/12 04:11:40;;;;;;;1.90;1.70;;;12.50;99.90;;;;;;5002946;28;20202;-72
2023/04/12 04:14:16;;;;;;;1.57;1.47;;;12.50;99.90;;;;;;5000422;28;20213;-71
2023/04/12 04:16:45;;;;;;;3.83;1.90;;;12.40;99.90;;;;;;4999004;28;20245;-71
2023/04/12 04:19:14;;;;;;;2.30;2.10;;;12.40;99.90;;;;;;4998693;28;20443;-72
2023/04/12 04:21:44;;;;;;;2.17;2.00;;;12.40;99.90;;;;;;4998775;28;21133;-71
2023/04/12 04:24:13;;;;;;;1.97;1.87;;;12.40;99.90;;;;;;5000224;28;20919;-71
2023/04/12 04:26:45;;;;;;;2.10;1.90;;;12.40;99.90;;;;;;5000676;28;20218;-72
2023/04/12 04:29:24;;;;;;;1.87;1.77;;;12.50;99.90;;;;;;4997886;28;20222;-73
2023/04/12 04:31:52;;;;;;;1.43;1.40;;;12.50;99.90;;;;;;5013356;28;20501;-72
2023/04/12 04:34:22;;;;;;;3.63;2.53;;;12.50;99.90;;;;;;5021624;28;20566;-71
2023/04/12 04:36:51;;;;;;;2.10;1.90;;;12.50;99.90;;;;;;5001116;28;20195;-72
2023/04/12 04:39:27;;;;;;;2.97;2.40;;;12.40;99.90;;;;;;5003481;28;20198;-72
2023/04/12 04:41:56;;;;;;;2.03;1.93;;;12.40;99.90;;;;;;5020303;28;20258;-73
2023/04/12 04:44:42;;;;;;;2.03;1.90;;;12.40;99.90;;;;;;5018184;28;20738;-72
2023/04/12 04:47:11;;;;;;;2.10;1.90;;;12.40;99.90;;;;;;5018330;28;20221;-71
2023/04/12 04:49:40;;;;;;;1.87;1.67;;;12.40;99.90;;;;;;5020428;28;20778;-71
2023/04/12 04:52:28;;;;;;;2.53;2.30;;;12.40;99.90;;;;;;5000450;28;20634;-72
2023/04/12 04:55:09;;;;;;;2.27;2.17;;;12.40;99.90;;;;;;4998852;28;20202;-73
2023/04/12 04:57:39;;;;;;;2.70;2.50;;;12.40;99.90;;;;;;5000308;28;20202;-73
2023/04/12 05:00:09;;;;;;;2.30;2.10;;;12.40;99.90;;;;;;5017876;28;20352;-72
2023/04/12 05:02:41;;;;;;;2.53;2.07;;;12.40;99.90;;;;;;4997222;28;20326;-72
2023/04/12 05:05:12;;;;;;;2.10;2.00;;;12.40;99.90;;;;;;5014876;28;20198;-72
2023/04/12 05:07:40;;;;;;;2.00;1.90;;;12.40;99.90;;;;;;4998124;28;20305;-72
2023/04/12 05:10:09;;;;;;;4.93;3.23;;;12.50;99.90;;;;;;4998505;28;20207;-71
2023/04/12 05:12:39;;;;;;;6.00;4.20;;;12.50;99.90;;;;;;4998575;28;20207;-72
2023/04/12 05:15:08;;;;;;;4.23;3.80;;;12.50;99.90;;;;;;4998336;28;20304;-72
2023/04/12 05:17:39;;;;;;;6.10;3.00;;;12.50;99.90;;;;;;4997340;28;20196;-72
2023/04/12 05:20:10;;;;;;;3.70;2.80;;;12.60;99.90;;;;;;5018794;28;20199;-72
2023/04/12 05:22:40;;;;;;;2.30;2.20;;;12.60;99.90;;;;;;5019598;28;20193;-72
2023/04/12 05:25:09;;;;;;;3.00;2.70;;;12.60;99.90;;;;;;5018700;28;20203;-71
2023/04/12 05:27:44;;;;;;;2.60;2.30;;;12.70;99.90;;;;;;4999021;28;20198;-72
2023/04/12 05:30:15;;;;;;;5.23;3.50;;;12.70;99.90;;;;;;4995471;28;20214;-71
2023/04/12 05:32:43;;;;;;;2.60;2.40;;;12.70;99.90;;;;;;4997811;28;20373;-72
2023/04/12 05:35:13;;;;;;;3.67;2.83;;;12.70;99.90;;;;;;5014547;28;20207;-71
2023/04/12 05:37:45;;;;;;;2.13;1.93;;;12.70;99.90;;;;;;4996297;28;20198;-72
2023/04/12 05:40:13;;;;;;;2.73;2.43;;;12.70;99.90;;;;;;4996366;28;20262;-72
2023/04/12 05:42:42;;;;;;;2.17;2.07;;;12.80;99.90;;;;;;4999358;28;20206;-73
2023/04/12 05:45:12;;;;;;;2.83;2.30;;;12.80;99.90;;;;;;5018414;28;20343;-71
2023/04/12 05:47:57;;;;;;;3.13;2.13;;;12.80;99.90;;;;;;4998645;28;21144;-73
2023/04/12 05:50:25;;;;;;;1.90;1.80;;;12.80;99.90;;;;;;4999512;28;20203;-73
2023/04/12 05:52:55;;;;;;;3.93;2.97;;;12.80;99.90;;;;;;5000384;28;20215;-72
2023/04/12 05:55:27;;;;;;;2.60;2.40;;;12.80;99.90;;;;;;5012960;28;20269;-71
2023/04/12 05:57:58;;;;;;;2.73;2.27;;;12.90;99.90;;;;;;5019695;28;20238;-73
2023/04/12 06:00:30;;;;;;;3.27;2.20;;;12.90;99.90;;;;;;5013692;28;20696;-71
2023/04/12 06:02:58;;;;;;;3.00;2.23;;;13.00;99.90;;;;;;5017781;28;20242;-72
2023/04/12 06:05:26;;;;;;;2.70;2.20;;;12.90;99.90;;;;;;5016502;28;20205;-72
2023/04/12 06:07:55;;;;;;;2.27;2.07;;;13.00;99.90;;;;;;5015899;28;20221;-71
2023/04/12 06:10:22;;;;;;;2.27;2.07;;;13.00;99.90;;;;;;5013797;28;20261;-72
2023/04/12 06:12:53;;;;;;;3.60;3.17;;;13.10;99.90;;;;;;4997545;28;20217;-73
2023/04/12 06:15:23;;;;;;;3.43;2.23;;;13.20;99.90;;;;;;5004451;28;20204;-72
2023/04/12 06:17:57;;;;;;;3.20;2.37;;;13.30;99.90;;;;;;5013553;28;20257;-72
2023/04/12 06:20:28;;;;;;;2.50;2.30;;;13.30;99.90;;;;;;5017866;28;20188;-73
2023/04/12 06:22:57;;;;;;;1.73;1.63;;;13.40;99.90;;;;;;5009703;28;20250;-73
2023/04/12 06:25:24;;;;;;;2.37;2.17;;;13.50;99.90;;;;;;5014054;28;20246;-72
2023/04/12 06:27:53;;;;;;;3.70;2.30;;;13.50;99.90;;;;;;5008515;28;20220;-72
2023/04/12 06:30:23;;;;;;;2.73;2.03;;;13.50;99.90;;;;;;5001857;28;20686;-72
2023/04/12 06:32:53;;;;;;;2.47;2.27;;;13.50;99.90;;;;;;4997730;28;20685;-73
2023/04/12 06:35:21;;;;;;;2.63;2.00;;;13.50;99.90;;;;;;4997638;28;20208;-72
2023/04/12 06:37:49;;;;;;;3.00;2.27;;;13.60;99.90;;;;;;4996187;28;20332;-73
2023/04/12 06:40:17;;;;;;;3.43;2.30;;;13.50;99.90;;;;;;5014941;28;20219;-73
2023/04/12 06:42:50;;;;;;;2.77;2.57;;;13.60;99.90;;;;;;4997486;28;20298;-72
2023/04/12 06:45:26;;;;;;;2.50;2.30;;;13.60;99.90;;;;;;4995476;28;20205;-73
2023/04/12 06:47:54;;;;;;;2.87;2.50;;;13.60;99.90;;;;;;4998752;28;20269;-73
2023/04/12 06:50:21;;;;;;;3.33;2.77;;;13.60;99.90;;;;;;5015695;28;20208;-72
2023/04/12 06:52:51;;;;;;;2.47;2.27;;;13.60;99.90;;;;;;5017166;28;20269;-71
2023/04/12 06:55:22;;;;;;;2.73;2.47;;;13.50;99.90;;;;;;5015175;28;20248;-71
2023/04/12 06:57:56;;;;;;;2.50;2.20;;;13.50;99.90;;;;;;4996881;28;20216;-72
2023/04/12 07:00:23;;;;;;;2.43;2.20;;;13.50;99.90;;;;;;5014720;28;20191;-72
2023/04/12 07:03:00;;;;;;;2.80;2.50;;;13.40;99.90;;;;;;4996097;28;20754;-73
2023/04/12 07:05:27;;;;;;;2.57;2.37;;;13.40;99.90;;;;;;5015417;28;20200;-72
2023/04/12 07:07:55;;;;;;;2.30;2.13;;;13.40;99.90;;;;;;4996082;28;20747;-71
2023/04/12 07:10:24;;;;;;;2.37;2.17;;;13.40;99.90;;;;;;5014841;28;20674;-73
2023/04/12 07:12:51;;;;;;;2.90;2.27;;;13.40;99.90;;;;;;5012619;28;20200;-72
2023/04/12 07:15:19;;;;;;;2.23;2.10;;;13.50;99.90;;;;;;5012063;28;20297;-71
2023/04/12 07:17:46;;;;;;;2.33;2.07;;;13.50;99.90;;;;;;5012519;28;20188;-72
2023/04/12 07:20:13;;;;;;;4.20;2.53;;;13.50;99.90;;;;;;5013985;28;20187;-71
2023/04/12 07:22:44;;;;;;;3.07;2.23;;;13.50;99.90;;;;;;5014892;28;20207;-72
2023/04/12 07:25:11;;;;;;;2.77;2.50;;;13.50;99.90;;;;;;5012817;28;20212;-72
2023/04/12 07:27:42;;;;;;;3.10;2.70;;;13.50;99.90;;;;;;5014508;28;20230;-73
2023/04/12 07:30:11;;;;;;;2.60;2.40;;;13.50;99.90;;;;;;5011570;28;20720;-72
2023/04/12 07:32:38;;;;;;;3.00;2.80;;;13.50;99.90;;;;;;5013268;28;20238;-72
2023/04/12 07:35:10;;;;;;;5.43;4.20;;;13.40;99.90;;;;;;5015547;28;20210;-73
2023/04/12 07:37:38;;;;;;;4.27;3.30;;;13.40;99.90;;;;;;5015423;28;20284;-72
2023/04/12 07:40:09;;;;;;;3.70;2.80;;;13.40;99.90;;;;;;5014271;28;20207;-72
2023/04/12 07:42:45;;;;;;;3.20;2.90;;;13.50;99.90;;;;;;4999242;28;20340;-72
2023/04/12 07:45:19;;;;;;;2.97;2.77;;;13.50;99.90;;;;;;5017493;28;20286;-72
2023/04/12 07:47:52;;;;;;;4.23;2.50;;;13.40;99.90;;;;;;4999230;28;20218;-72
2023/04/12 07:50:20;;;;;;;2.93;2.37;;;13.70;99.90;;;;;;4997134;28;20685;-72
2023/04/12 07:53:21;;;;;;;5.90;2.50;;;13.50;99.90;;;;;;5016443;28;20767;-73
2023/04/12 07:55:51;;;;;;;2.90;2.70;;;13.50;99.90;;;;;;5017567;28;20245;-72
2023/04/12 07:58:26;;;;;;;2.30;2.10;;;13.50;99.90;;;;;;5003588;28;20197;-71
2023/04/12 08:01:02;;;;;;;2.83;2.40;;;13.50;99.90;;;;;;5017501;28;20220;-72
2023/04/12 08:03:54;;;;;;;2.53;2.33;;;13.50;99.90;;;;;;4987909;28;20235;-73
2023/04/12 08:06:27;;;;;;;2.87;2.60;;;13.60;99.90;;;;;;4981534;28;20196;-71
2023/04/12 08:08:55;;;;;;;2.70;2.50;;;13.60;99.90;;;;;;4981372;28;20197;-72
2023/04/12 08:11:22;;;;;;;3.50;2.70;;;13.70;99.90;;;;;;4981807;28;20209;-72
2023/04/12 08:13:51;;;;;;;2.50;2.30;;;13.70;99.90;;;;;;4989670;28;20204;-72
2023/04/12 08:16:21;;;;;;;3.00;2.70;;;13.80;99.90;;;;;;4966367;28;20215;-72
2023/04/12 08:18:48;;;;;;;2.83;2.50;;;13.90;99.90;;;;;;4992528;28;20207;-72
2023/04/12 08:21:16;;;;;;;2.10;2.00;;;14.00;99.90;;;;;;4998438;28;20256;-71
2023/04/12 08:23:43;;;;;;;2.77;2.57;;;14.00;99.90;;;;;;4979431;28;20210;-73
2023/04/12 08:26:14;;;;;;;4.23;2.70;;;14.00;99.90;;;;;;4999090;28;20197;-72
2023/04/12 08:28:43;;;;;;;3.53;3.23;;;14.00;99.90;;;;;;5000818;28;20217;-71
2023/04/12 08:31:16;;;;;;;3.63;3.33;;;14.00;99.90;;;;;;4999175;28;20705;-72
2023/04/12 08:33:43;;;;;;;3.57;3.23;;;14.00;99.90;;;;;;4997293;28;20194;-72
2023/04/12 08:36:11;;;;;;;4.33;3.40;;;14.00;99.90;;;;;;4991503;28;20205;-72
2023/04/12 08:38:42;;;;;;;2.90;2.70;;;14.10;99.90;;;;;;4982504;28;20202;-72
2023/04/12 08:41:11;;;;;;;6.40;4.03;;;14.10;99.90;;;;;;4993178;28;20201;-74
2023/04/12 08:43:45;;;;;;;3.20;2.77;;;14.20;99.80;;;;;;4979799;28;20819;-74
2023/04/12 08:46:36;;;;;;;9.53;4.07;;;14.20;99.70;;;;;;4998434;28;20653;-75
2023/04/12 08:49:05;;;;;;;3.73;3.10;;;14.30;99.60;;;;;;4979436;28;21021;-73
2023/04/12 08:51:35;;;;;;;3.40;3.00;;;14.30;99.60;;;;;;4999003;28;20288;-73
2023/04/12 08:54:04;;;;;;;3.57;3.13;;;14.40;99.50;;;;;;4980455;28;20312;-73
2023/04/12 08:56:32;;;;;;;3.47;2.90;;;14.40;99.30;;;;;;4979503;28;20234;-73
2023/04/12 08:59:01;;;;;;;6.17;4.17;;;14.50;99.30;;;;;;4977264;28;20201;-73
2023/04/12 09:01:31;;;;;;;4.50;3.90;;;14.60;99.10;;;;;;4979159;28;20298;-73
2023/04/12 09:03:59;;;;;;;4.63;3.60;;;14.60;98.90;;;;;;5016966;28;20287;-72
2023/04/12 09:06:27;;;;;;;3.40;3.10;;;14.70;99.00;;;;;;4999829;28;20205;-72
2023/04/12 09:08:58;;;;;;;2.90;2.63;;;14.70;98.90;;;;;;4999868;28;20460;-73
2023/04/12 09:11:26;;;;;;;4.00;3.60;;;14.80;98.90;;;;;;5020614;28;20372;-73
2023/04/12 09:13:54;;;;;;;5.00;3.80;;;14.80;98.80;;;;;;5019287;28;20196;-74
2023/04/12 09:16:38;;;;;;;4.70;3.67;;;14.80;98.70;;;;;;5031747;28;20227;-74
2023/04/12 09:19:09;;;;;;;4.10;3.43;;;15.20;99.20;;;;;;5019103;28;20189;-72
2023/04/12 09:21:37;;;;;;;3.00;2.80;;;15.40;98.80;;;;;;5009026;28;20213;-73
2023/04/12 09:24:08;;;;;;;4.30;3.50;;;15.10;98.30;;;;;;5019516;28;20193;-74
2023/04/12 09:26:36;;;;;;;4.87;4.00;;;15.10;98.20;;;;;;5016758;28;20292;-72
2023/04/12 09:29:06;;;;;;;4.23;3.50;;;15.10;98.00;;;;;;5017791;28;20622;-74
2023/04/12 09:31:36;;;;;;;4.40;3.47;;;15.10;98.10;;;;;;5016983;28;20275;-73
2023/04/12 09:34:08;;;;;;;7.00;4.63;;;15.20;98.00;;;;;;5018677;28;20198;-73
2023/04/12 09:36:39;;;;;;;5.37;4.27;;;15.20;97.70;;;;;;5001548;28;20217;-72
2023/04/12 09:39:07;;;;;;;4.60;3.97;;;15.20;97.30;;;;;;5019563;28;20210;-73
2023/04/12 09:41:42;;;;;;;6.87;4.13;;;15.20;97.30;;;;;;5019760;28;20737;-72
2023/04/12 09:44:09;;;;;;;4.77;3.53;;;15.20;97.30;;;;;;5017268;28;20205;-74
2023/04/12 09:46:50;;;;;;;3.07;2.70;;;15.30;97.20;;;;;;5020682;28;20205;-72
2023/04/12 09:49:17;;;;;;;5.80;3.70;;;15.40;97.20;;;;;;5014076;28;20280;-72
2023/04/12 09:51:53;;;;;;;4.87;3.30;;;15.40;97.20;;;;;;5020085;28;20498;-72
2023/04/12 09:54:20;;;;;;;2.70;2.50;;;15.40;96.80;;;;;;5019338;28;22437;-74
2023/04/12 09:56:49;;;;;;;2.93;2.37;;;15.30;96.80;;;;;;5018351;28;20608;-73
2023/04/12 09:59:17;;;;;;;4.20;2.83;;;15.40;96.90;;;;;;5018270;28;20986;-73
2023/04/12 10:01:46;;;;;;;4.13;3.47;;;15.30;96.90;;;;;;5019794;28;20201;-72
2023/04/12 10:04:14;;;;;;;3.57;2.87;;;15.40;97.00;;;;;;5011332;28;20241;-72
2023/04/12 10:06:42;;;;;;;3.70;3.40;;;15.40;97.00;;;;;;5016665;28;20201;-73
2023/04/12 10:09:10;;;;;;;3.40;2.60;;;15.50;97.00;;;;;;5031829;28;20221;-73
2023/04/12 10:11:39;;;;;;;4.13;3.47;;;15.50;96.90;;;;;;5017235;28;20202;-73
2023/04/12 10:14:07;;;;;;;4.17;2.67;;;15.60;96.90;;;;;;5013718;28;20211;-72
2023/04/12 10:16:35;;;;;;;4.53;3.37;;;15.70;96.80;;;;;;5015657;28;20673;-73
2023/04/12 10:19:08;;;;;;;7.23;4.80;;;15.90;96.80;;;;;;5016311;28;20298;-72
2023/04/12 10:21:36;;;;;;;5.33;4.53;;;16.00;96.20;;;;;;5013926;28;21207;-73
2023/04/12 10:24:05;;;;;;;8.27;5.87;;;16.20;96.10;;;;;;5017970;28;20198;-73
2023/04/12 10:26:50;;;;;;;10.73;7.23;;;16.30;95.40;;;;;;5017211;28;20202;-73
2023/04/12 10:29:32;;;;;;;8.10;5.93;;;16.30;95.20;;;;;;5016570;28;20221;-72
2023/04/12 10:32:19;;;;;;;10.33;6.20;;;16.20;95.00;;;;;;5015008;28;20198;-73
2023/04/12 10:34:51;;;;;;;8.33;5.93;;;16.00;94.80;;;;;;5013098;28;20250;-73
2023/04/12 10:37:23;;;;;;;5.37;4.47;;;16.20;94.90;;;;;;5016011;28;20642;-73
2023/04/12 10:39:56;;;;;;;4.37;3.80;;;16.20;94.90;;;;;;4998330;28;20539;-73
2023/04/12 10:42:25;;;;;;;4.07;3.70;;;16.30;95.00;;;;;;5015813;28;20194;-73
2023/04/12 10:44:54;;;;;;;3.80;3.50;;;16.50;95.00;;;;;;5014747;28;20567;-73
2023/04/12 10:47:57;;;;;;;3.10;2.80;;;16.70;94.70;;;;;;5026340;28;20784;-73
2023/04/12 10:50:28;;;;;;;2.93;2.73;;;16.70;94.60;;;;;;5012708;28;20230;-74
2023/04/12 10:53:23;;;;;;;6.03;4.47;;;16.80;94.40;;;;;;5015349;28;20230;-73
2023/04/12 10:55:54;;;;;;;4.37;3.93;;;16.70;93.80;;;;;;5015171;28;20313;-73
2023/04/12 10:58:55;;;;;;;6.03;4.73;;;16.50;93.70;;;;;;4997206;28;20653;-73
2023/04/12 11:01:26;;;;;;;3.87;3.47;;;16.40;93.70;;;;;;5014661;28;20281;-72
2023/04/12 11:04:07;;;;;;;3.10;2.80;;;16.50;93.90;;;;;;5013612;28;20241;-72
2023/04/12 11:06:55;;;;;;;3.20;2.90;;;16.50;93.90;;;;;;5015694;28;20199;-72
2023/04/12 11:10:01;;;;;;;2.90;2.70;;;16.50;94.10;;;;;;4993631;28;20753;-73
2023/04/12 11:12:35;;;;;;;3.13;2.83;;;16.50;93.80;;;;;;4976985;28;20218;-73
2023/04/12 11:15:06;;;;;;;4.77;3.87;;;16.50;93.90;;;;;;5005746;28;20215;-73
2023/04/12 11:17:59;;;;;;;5.33;4.33;;;16.40;93.70;;;;;;4999514;28;20293;-73
2023/04/12 11:20:30;;;;;;;4.13;3.40;;;16.30;93.50;;;;;;4999706;28;20238;-73
2023/04/12 11:23:01;;;;;;;3.37;3.07;;;16.20;93.60;;;;;;5023633;28;20221;-73
2023/04/12 11:25:29;;;;;;;10.50;4.50;;;16.20;93.80;;;;;;5001331;28;20753;-74
2023/04/12 11:28:01;;;;;;;4.20;3.80;;;16.10;93.90;;;;;;5019032;28;20211;-73
2023/04/12 11:30:33;;;;;;;7.60;4.07;;;16.00;93.90;;;;;;5015655;28;20257;-74
2023/04/12 11:33:04;;;;;;;3.90;3.60;;;15.90;93.90;;;;;;5015939;28;20285;-73
2023/04/12 11:35:31;;;;;;;3.03;2.80;;;15.70;93.90;;;;;;5017887;28;20748;-73
2023/04/12 11:38:10;;;;;;;3.23;2.90;;;16.20;94.70;;;;;;5018632;28;20673;-74
2023/04/12 11:40:39;;;;;;;5.13;3.57;;;15.60;94.50;;;;;;5016328;28;20720;-74
2023/04/12 11:43:11;;;;;;;3.10;2.80;;;15.50;94.50;;;;;;5014295;28;20293;-74
2023/04/12 11:45:38;;;;;;;3.33;3.00;;;15.40;94.50;;;;;;5016144;28;20195;-73
2023/04/12 11:48:11;;;;;;;2.80;2.33;;;15.40;94.90;;;;;;5016654;28;20211;-73
2023/04/12 11:50:46;;;;;;;3.07;2.77;;;15.40;94.80;;;;;;5019364;28;20203;-75
2023/04/12 11:53:19;;;;;;;5.17;4.17;;;15.40;95.00;;;;;;5018640;28;20529;-73
2023/04/12 11:55:57;;;;;;;3.47;3.17;;;15.30;94.90;;;;;;5009163;28;20291;-73
2023/04/12 11:58:28;;;;;;;2.77;2.53;;;15.20;94.90;;;;;;5018855;28;20190;-73
2023/04/12 12:00:57;;;;;;;4.73;4.10;;;15.10;94.70;;;;;;5018775;28;20194;-73
2023/04/12 12:03:25;;;;;;;6.43;4.90;;;15.00;94.80;;;;;;4998365;28;20227;-75
2023/04/12 12:05:53;;;;;;;7.33;4.77;;;14.90;94.90;;;;;;5002388;28;20210;-73
2023/04/12 12:08:25;;;;;;;6.23;5.17;;;14.80;95.00;;;;;;5016106;28;20210;-74
2023/04/12 12:10:54;;;;;;;7.37;5.07;;;14.70;95.30;;;;;;5015269;28;20202;-74
2023/04/12 12:13:22;;;;;;;7.23;5.50;;;14.70;95.50;;;;;;5015769;28;20233;-74
2023/04/12 12:15:52;;;;;;;6.60;5.30;;;14.60;95.80;;;;;;5019313;28;20190;-74
2023/04/12 12:18:29;;;;;;;6.13;4.83;;;14.50;95.60;;;;;;5032903;28;20557;-74
2023/04/12 12:21:00;;;;;;;6.83;5.07;;;14.50;95.60;;;;;;5034966;28;20202;-74
2023/04/12 12:23:32;;;;;;;5.47;4.50;;;14.40;95.70;;;;;;5019418;28;20305;-74
2023/04/12 12:26:00;;;;;;;4.07;3.67;;;14.40;95.80;;;;;;5034344;28;20252;-73
2023/04/12 12:28:29;;;;;;;8.37;5.00;;;14.50;95.90;;;;;;5020587;28;20208;-74
2023/04/12 12:30:57;;;;;;;3.73;3.43;;;14.70;96.00;;;;;;5001635;28;20377;-74
2023/04/12 12:33:24;;;;;;;6.87;4.77;;;14.90;95.90;;;;;;5032568;28;20202;-73
2023/04/12 12:35:57;;;;;;;7.97;5.80;;;15.10;95.90;;;;;;5018535;28;20288;-73
2023/04/12 12:38:41;;;;;;;4.60;3.93;;;15.30;95.70;;;;;;5000422;28;20788;-74
2023/04/12 12:41:19;;;;;;;6.00;4.60;;;15.20;95.70;;;;;;5019728;28;20229;-73
2023/04/12 12:43:47;;;;;;;5.43;4.47;;;15.60;95.50;;;;;;5017271;28;20199;-74
2023/04/12 12:46:16;;;;;;;4.33;3.93;;;15.50;95.30;;;;;;5020165;28;20212;-73
2023/04/12 12:48:44;;;;;;;3.30;3.10;;;16.00;95.30;;;;;;5016830;28;20264;-75
2023/04/12 12:51:12;;;;;;;5.83;5.07;;;16.10;95.20;;;;;;5019862;28;20195;-75
2023/04/12 12:53:41;;;;;;;5.20;4.70;;;16.20;95.00;;;;;;5021237;28;20980;-74
2023/04/12 12:56:11;;;;;;;9.37;7.10;;;16.30;94.90;;;;;;5032031;28;20708;-75
2023/04/12 12:58:41;;;;;;;7.20;5.37;;;16.30;94.70;;;;;;5018010;28;20535;-75
2023/04/12 13:01:14;;;;;;;6.40;5.40;;;16.40;94.90;;;;;;5017442;28;20203;-74
2023/04/12 13:03:53;;;;;;;9.40;7.47;;;16.40;94.30;;;;;;5017033;28;20292;-74
2023/04/12 13:06:22;;;;;;;10.20;7.20;;;16.40;94.00;;;;;;5016651;28;20287;-73
2023/04/12 13:08:51;;;;;;;9.63;7.47;;;16.30;93.80;;;;;;5017791;28;20213;-73
2023/04/12 13:11:20;;;;;;;8.93;6.60;;;16.10;93.90;;;;;;4999585;28;20428;-73